Time;durP1;ratioP1;P1;durP2;ratioP2;P2;SDS_P1;SDS_P2;PMS_P1;PMS_P2;Temp;Humidity;BMP_temperature;BMP_pressure;BME280_temperature;BME280_humidity;BME280_pressure;Samples;Min_cycle;Max_cycle;Signal;HPM_P1;HPM_P2
2022/04/09 00:02:00;;;;;;;3.33;0.60;;;20.30;99.90;;;;;;5075213;28;20243;-70
2022/04/09 00:04:30;;;;;;;3.90;0.70;;;20.40;99.90;;;;;;5067814;28;20562;-70
2022/04/09 00:07:01;;;;;;;3.00;0.70;;;20.50;99.90;;;;;;5073697;28;20189;-69
2022/04/09 00:09:33;;;;;;;2.55;0.55;;;20.60;99.90;;;;;;5068673;28;20713;-74
2022/04/09 00:12:04;;;;;;;4.88;0.73;;;20.70;99.90;;;;;;5072871;28;20254;-73
2022/04/09 00:14:35;;;;;;;3.45;0.80;;;20.70;99.90;;;;;;5075882;28;20212;-70
2022/04/09 00:17:08;;;;;;;4.30;1.05;;;20.80;99.90;;;;;;5073274;28;20193;-72
2022/04/09 00:19:39;;;;;;;5.20;0.90;;;20.70;99.90;;;;;;5072658;28;20695;-69
2022/04/09 00:22:10;;;;;;;4.28;0.80;;;20.70;99.90;;;;;;5075698;28;20200;-70
2022/04/09 00:24:43;;;;;;;2.53;0.73;;;20.60;99.90;;;;;;5070786;28;20678;-70
2022/04/09 00:27:14;;;;;;;6.30;1.10;;;20.40;99.90;;;;;;5076187;28;20185;-70
2022/04/09 00:29:44;;;;;;;4.78;0.80;;;20.20;99.90;;;;;;5066112;28;20189;-69
2022/04/09 00:32:15;;;;;;;6.15;0.75;;;20.10;99.90;;;;;;5074563;28;20193;-70
2022/04/09 00:34:45;;;;;;;6.45;0.98;;;20.00;99.90;;;;;;5074597;28;20654;-71
2022/04/09 00:37:16;;;;;;;3.15;0.90;;;19.90;99.90;;;;;;5077010;28;20199;-69
2022/04/09 00:39:49;;;;;;;3.90;0.77;;;19.90;99.90;;;;;;5076783;28;20209;-70
2022/04/09 00:42:20;;;;;;;2.53;0.55;;;20.00;99.90;;;;;;5071684;28;20189;-69
2022/04/09 00:44:52;;;;;;;5.53;0.80;;;20.10;99.90;;;;;;5073060;28;20307;-69
2022/04/09 00:47:22;;;;;;;3.15;0.80;;;20.20;99.90;;;;;;5078111;28;20238;-71
2022/04/09 00:49:53;;;;;;;4.22;0.77;;;20.20;99.90;;;;;;5072595;28;20286;-72
2022/04/09 00:52:25;;;;;;;5.30;0.93;;;20.40;99.90;;;;;;5073583;28;20189;-70
2022/04/09 00:54:59;;;;;;;3.28;1.27;;;20.50;99.90;;;;;;5071533;28;20217;-79
2022/04/09 00:57:31;;;;;;;5.45;0.88;;;20.70;99.90;;;;;;5075321;28;20630;-70
2022/04/09 01:00:06;;;;;;;5.38;0.75;;;20.70;99.90;;;;;;5071367;28;20262;-69
2022/04/09 01:02:36;;;;;;;3.67;0.80;;;20.80;99.90;;;;;;5075076;28;20192;-69
2022/04/09 01:05:07;;;;;;;5.28;0.80;;;20.90;99.90;;;;;;5073531;28;20193;-69
2022/04/09 01:07:38;;;;;;;4.15;0.70;;;20.90;99.90;;;;;;5073123;28;20551;-69
2022/04/09 01:10:12;;;;;;;6.65;0.85;;;21.10;99.90;;;;;;5072502;28;20707;-70
2022/04/09 01:12:42;;;;;;;4.07;0.70;;;21.40;99.90;;;;;;5073909;28;20188;-69
2022/04/09 01:15:13;;;;;;;6.25;0.57;;;21.60;99.90;;;;;;5072645;28;20193;-70
2022/04/09 01:17:44;;;;;;;4.95;0.80;;;21.80;99.90;;;;;;5073958;28;20233;-69
2022/04/09 01:20:19;;;;;;;3.35;0.63;;;21.90;99.90;;;;;;5072096;28;20217;-70
2022/04/09 01:22:51;;;;;;;4.45;0.90;;;22.00;99.90;;;;;;5073624;28;20639;-69
2022/04/09 01:25:22;;;;;;;4.50;0.80;;;22.00;99.90;;;;;;5065300;28;20218;-68
2022/04/09 01:27:54;;;;;;;7.43;1.00;;;22.00;99.90;;;;;;5072713;28;20189;-69
2022/04/09 01:30:25;;;;;;;6.75;0.98;;;21.90;99.90;;;;;;5068953;28;20216;-72
2022/04/09 01:32:55;;;;;;;5.78;0.80;;;21.70;99.90;;;;;;5074325;28;20254;-70
2022/04/09 01:35:26;;;;;;;5.95;0.80;;;21.60;99.90;;;;;;5071917;28;20185;-70
2022/04/09 01:37:58;;;;;;;7.88;0.95;;;21.50;99.90;;;;;;5072226;28;20196;-71
2022/04/09 01:40:29;;;;;;;4.32;0.88;;;21.60;99.90;;;;;;5071184;28;20208;-70
2022/04/09 01:43:00;;;;;;;4.63;0.90;;;21.70;99.90;;;;;;5071874;28;20188;-69
2022/04/09 01:45:30;;;;;;;9.07;1.42;;;21.50;99.90;;;;;;5071928;28;20193;-68
2022/04/09 01:48:01;;;;;;;7.53;1.40;;;21.50;99.90;;;;;;5068685;28;20196;-68
2022/04/09 01:50:32;;;;;;;5.90;1.05;;;21.20;99.90;;;;;;5076176;28;20243;-70
2022/04/09 01:53:04;;;;;;;5.70;1.20;;;21.10;99.90;;;;;;5076142;28;20188;-71
2022/04/09 01:55:35;;;;;;;9.23;1.20;;;20.70;99.90;;;;;;5076456;28;20238;-68
2022/04/09 01:58:06;;;;;;;7.70;1.42;;;20.60;99.90;;;;;;5076072;28;20197;-68
2022/04/09 02:00:37;;;;;;;8.30;0.93;;;20.70;99.90;;;;;;5076413;28;20220;-70
2022/04/09 02:03:08;;;;;;;11.50;1.35;;;20.70;99.90;;;;;;5075927;28;20248;-69
2022/04/09 02:05:38;;;;;;;6.78;1.10;;;20.80;99.90;;;;;;5075556;28;20185;-68
2022/04/09 02:08:11;;;;;;;8.23;0.98;;;20.70;99.90;;;;;;5076030;28;20185;-69
2022/04/09 02:10:42;;;;;;;8.95;0.98;;;20.70;99.90;;;;;;5076184;28;20201;-69
2022/04/09 02:13:15;;;;;;;10.18;1.17;;;20.80;99.90;;;;;;5075841;28;20196;-70
2022/04/09 02:15:45;;;;;;;7.60;0.80;;;21.00;99.90;;;;;;5076246;28;20250;-69
2022/04/09 02:18:16;;;;;;;7.43;1.13;;;21.30;99.90;;;;;;5074795;28;20185;-70
2022/04/09 02:20:47;;;;;;;7.15;0.95;;;21.40;99.90;;;;;;5075375;28;20213;-70
2022/04/09 02:23:19;;;;;;;6.63;1.00;;;21.70;99.90;;;;;;5075706;28;20193;-75
2022/04/09 02:25:50;;;;;;;8.18;1.10;;;21.80;99.90;;;;;;5075737;28;20216;-74
2022/04/09 02:28:20;;;;;;;7.78;1.10;;;21.80;99.90;;;;;;5074861;28;20604;-69
2022/04/09 02:30:51;;;;;;;4.85;1.23;;;21.90;99.90;;;;;;5078799;28;20185;-70
2022/04/09 02:33:21;;;;;;;9.38;1.00;;;21.90;99.90;;;;;;5069833;28;20617;-68
2022/04/09 02:35:52;;;;;;;7.15;1.20;;;21.90;99.90;;;;;;5077736;28;20193;-69
2022/04/09 02:38:25;;;;;;;6.55;1.00;;;22.10;99.90;;;;;;5079167;28;20193;-69
2022/04/09 02:40:55;;;;;;;10.35;1.15;;;22.10;99.90;;;;;;5075586;28;20195;-69
2022/04/09 02:43:26;;;;;;;5.70;1.00;;;22.10;99.90;;;;;;5075726;28;20659;-69
2022/04/09 02:45:57;;;;;;;10.05;1.15;;;21.90;99.90;;;;;;5073712;28;20186;-68
2022/04/09 02:48:27;;;;;;;6.22;1.33;;;21.70;99.90;;;;;;5074889;28;20189;-69
2022/04/09 02:50:58;;;;;;;5.55;0.93;;;21.60;99.90;;;;;;5076775;28;20229;-68
2022/04/09 02:53:30;;;;;;;5.22;0.80;;;21.20;99.90;;;;;;5075458;28;20193;-69
2022/04/09 02:56:01;;;;;;;4.68;0.98;;;20.90;99.90;;;;;;5074946;28;20196;-68
2022/04/09 02:58:32;;;;;;;5.30;0.80;;;20.60;99.90;;;;;;5075005;28;20192;-69
2022/04/09 03:01:02;;;;;;;4.32;0.70;;;20.40;99.90;;;;;;5078520;28;20193;-69
2022/04/09 03:03:33;;;;;;;2.42;0.60;;;20.30;99.90;;;;;;5071008;28;20185;-69
2022/04/09 03:06:04;;;;;;;4.45;0.90;;;20.20;99.90;;;;;;5074749;28;20192;-70
2022/04/09 03:08:36;;;;;;;5.93;0.82;;;20.10;99.90;;;;;;5074556;28;20637;-69
2022/04/09 03:11:07;;;;;;;5.18;0.82;;;20.20;99.90;;;;;;5075431;28;20190;-74
2022/04/09 03:13:37;;;;;;;7.72;1.10;;;20.10;99.90;;;;;;5075353;28;20258;-73
2022/04/09 03:16:08;;;;;;;5.13;0.80;;;20.30;99.90;;;;;;5075242;28;20245;-68
2022/04/09 03:18:39;;;;;;;6.50;1.10;;;20.30;99.90;;;;;;5074502;28;20185;-71
2022/04/09 03:21:09;;;;;;;5.68;1.23;;;20.40;99.90;;;;;;5074479;28;20189;-70
2022/04/09 03:23:42;;;;;;;7.72;1.02;;;20.40;99.90;;;;;;5076612;28;20189;-69
2022/04/09 03:26:13;;;;;;;5.25;1.00;;;20.40;99.90;;;;;;5073515;28;20667;-69
2022/04/09 03:28:43;;;;;;;7.93;1.15;;;20.40;99.90;;;;;;5074417;28;20181;-69
2022/04/09 03:31:14;;;;;;;4.53;0.90;;;20.40;99.90;;;;;;5074604;28;20185;-69
2022/04/09 03:33:45;;;;;;;3.13;0.90;;;20.40;99.90;;;;;;5072923;28;20189;-75
2022/04/09 03:36:16;;;;;;;8.60;1.10;;;20.40;99.90;;;;;;5080193;28;20199;-69
2022/04/09 03:38:48;;;;;;;3.78;0.80;;;20.50;99.90;;;;;;5077416;28;20197;-70
2022/04/09 03:41:19;;;;;;;4.75;0.88;;;20.50;99.90;;;;;;5074771;28;20637;-70
2022/04/09 03:43:51;;;;;;;8.88;1.00;;;20.70;99.90;;;;;;5073384;28;20192;-73
2022/04/09 03:46:21;;;;;;;5.28;0.88;;;20.90;99.90;;;;;;5073948;28;20188;-76
2022/04/09 03:48:52;;;;;;;4.78;0.90;;;21.10;99.90;;;;;;5074192;28;20266;-73
2022/04/09 03:51:22;;;;;;;9.68;1.20;;;21.20;99.90;;;;;;5074058;28;20687;-77
2022/04/09 03:53:55;;;;;;;5.90;0.93;;;21.30;99.90;;;;;;5074584;28;20701;-80
2022/04/09 03:56:26;;;;;;;6.32;1.52;;;21.40;99.90;;;;;;5074126;28;20189;-70
2022/04/09 03:58:56;;;;;;;6.40;1.10;;;21.70;99.90;;;;;;5073819;28;20193;-71
2022/04/09 04:01:27;;;;;;;8.45;1.13;;;22.00;99.90;;;;;;5077885;28;20189;-70
2022/04/09 04:03:58;;;;;;;8.18;1.30;;;22.30;99.90;;;;;;5073574;28;20213;-70
2022/04/09 04:06:29;;;;;;;8.93;1.42;;;22.50;99.90;;;;;;5073629;28;20705;-69
2022/04/09 04:09:01;;;;;;;9.23;1.23;;;22.50;99.90;;;;;;5073938;28;20197;-69
2022/04/09 04:11:32;;;;;;;8.82;1.40;;;22.40;99.90;;;;;;5076754;28;20189;-69
2022/04/09 04:14:04;;;;;;;7.28;1.30;;;22.40;99.90;;;;;;5075495;28;20184;-69
2022/04/09 04:16:35;;;;;;;9.68;1.10;;;22.40;99.90;;;;;;5073853;28;20212;-68
2022/04/09 04:19:05;;;;;;;9.60;1.30;;;22.40;99.90;;;;;;5073261;28;20197;-70
2022/04/09 04:21:38;;;;;;;8.25;1.23;;;22.60;99.90;;;;;;5076736;28;20231;-69
2022/04/09 04:24:10;;;;;;;7.97;1.27;;;22.80;99.90;;;;;;5071248;28;20279;-72
2022/04/09 04:26:41;;;;;;;11.77;1.30;;;22.80;99.90;;;;;;5069023;28;20194;-84
2022/04/09 04:29:12;;;;;;;7.50;1.20;;;22.90;99.90;;;;;;5079838;28;20199;-69
2022/04/09 04:31:42;;;;;;;9.10;1.38;;;22.90;99.90;;;;;;5073423;28;20185;-70
2022/04/09 04:34:13;;;;;;;6.07;1.17;;;23.00;99.90;;;;;;5073851;28;20189;-72
2022/04/09 04:36:43;;;;;;;6.13;0.98;;;22.80;99.90;;;;;;5065710;28;20254;-73
2022/04/09 04:39:16;;;;;;;7.97;1.10;;;22.60;99.90;;;;;;5070316;28;20193;-73
2022/04/09 04:41:47;;;;;;;8.05;1.17;;;22.50;99.90;;;;;;5072741;28;20189;-79
2022/04/09 04:44:18;;;;;;;6.65;1.10;;;22.40;99.90;;;;;;5073199;28;20189;-73
2022/04/09 04:46:48;;;;;;;7.90;1.13;;;22.30;99.90;;;;;;5073173;28;20192;-71
2022/04/09 04:49:19;;;;;;;8.30;1.30;;;22.30;99.90;;;;;;5073079;28;20214;-73
2022/04/09 04:51:49;;;;;;;3.85;0.98;;;22.10;99.90;;;;;;5072254;28;20197;-70
2022/04/09 04:54:22;;;;;;;6.10;1.00;;;22.10;99.90;;;;;;5072880;28;20190;-71
2022/04/09 04:56:52;;;;;;;12.45;1.40;;;22.00;99.90;;;;;;5072800;28;20193;-69
2022/04/09 04:59:23;;;;;;;6.22;1.00;;;21.90;99.90;;;;;;5072893;28;20192;-71
2022/04/09 05:01:54;;;;;;;4.45;1.00;;;21.80;99.90;;;;;;5072526;28;20200;-69
2022/04/09 05:04:25;;;;;;;7.63;1.20;;;21.80;99.90;;;;;;5068605;28;20193;-69
2022/04/09 05:06:55;;;;;;;10.85;1.25;;;21.70;99.90;;;;;;5072368;28;20192;-72
2022/04/09 05:09:28;;;;;;;7.80;1.20;;;21.60;99.90;;;;;;5072887;28;20185;-72
2022/04/09 05:11:58;;;;;;;8.52;1.30;;;21.50;99.90;;;;;;5072327;28;20205;-69
2022/04/09 05:14:29;;;;;;;10.73;1.50;;;21.50;99.90;;;;;;5072587;28;20193;-75
2022/04/09 05:17:00;;;;;;;5.97;1.30;;;21.50;99.90;;;;;;5072857;28;20193;-72
2022/04/09 05:19:30;;;;;;;11.30;1.30;;;21.40;99.90;;;;;;5064977;28;20185;-75
2022/04/09 05:22:01;;;;;;;8.68;1.90;;;21.40;99.90;;;;;;5072116;28;20192;-78
2022/04/09 05:24:34;;;;;;;10.63;1.63;;;21.40;99.90;;;;;;5067829;28;20209;-72
2022/04/09 05:27:04;;;;;;;7.45;1.23;;;21.40;99.90;;;;;;5066273;28;20545;-73
2022/04/09 05:29:35;;;;;;;8.60;1.40;;;21.40;99.90;;;;;;5069222;28;20189;-71
2022/04/09 05:32:06;;;;;;;10.90;1.42;;;21.40;99.90;;;;;;5071741;28;20193;-71
2022/04/09 05:34:37;;;;;;;10.70;1.38;;;21.40;99.90;;;;;;5069568;28;20277;-73
2022/04/09 05:37:07;;;;;;;4.65;1.17;;;21.40;99.90;;;;;;5072829;28;20242;-80
2022/04/09 05:39:40;;;;;;;5.70;1.10;;;21.40;99.90;;;;;;5070362;28;20641;-73
2022/04/09 05:42:11;;;;;;;9.93;1.05;;;21.50;99.90;;;;;;5067868;28;20185;-78
2022/04/09 05:44:42;;;;;;;6.72;1.30;;;21.60;99.90;;;;;;5068978;28;20189;-78
2022/04/09 05:47:12;;;;;;;11.25;2.03;;;21.70;99.90;;;;;;5070265;28;20246;-79
2022/04/09 05:49:43;;;;;;;7.53;0.93;;;21.70;99.90;;;;;;5071972;28;20257;-81
2022/04/09 05:52:13;;;;;;;6.65;1.00;;;21.70;99.90;;;;;;5061875;28;20262;-73
2022/04/09 05:54:46;;;;;;;7.63;1.13;;;21.70;99.90;;;;;;5065745;28;20366;-83
2022/04/09 05:57:17;;;;;;;10.50;1.45;;;21.70;99.90;;;;;;5063537;28;20197;-80
2022/04/09 05:59:47;;;;;;;6.70;1.42;;;21.70;99.90;;;;;;5070854;28;20188;-85
2022/04/09 06:02:18;;;;;;;5.85;1.38;;;21.80;99.90;;;;;;5064982;28;20221;-88
2022/04/09 06:04:48;;;;;;;8.75;1.20;;;21.90;99.90;;;;;;5072301;28;20189;-69
2022/04/09 06:07:19;;;;;;;9.65;1.48;;;21.80;99.90;;;;;;5065932;28;20649;-73
2022/04/09 06:09:52;;;;;;;9.05;1.35;;;21.80;99.90;;;;;;5067260;28;20235;-69
2022/04/09 06:12:23;;;;;;;7.50;1.20;;;21.70;99.90;;;;;;5064936;28;20267;-70
2022/04/09 06:14:53;;;;;;;6.55;1.02;;;21.80;99.90;;;;;;5062464;28;20247;-72
2022/04/09 06:17:27;;;;;;;9.10;1.13;;;21.80;99.90;;;;;;5066775;28;20267;-69
2022/04/09 06:19:58;;;;;;;7.93;1.00;;;21.80;99.90;;;;;;5066690;28;20182;-69
2022/04/09 06:22:28;;;;;;;7.85;0.98;;;21.80;99.90;;;;;;5066710;28;20235;-72
2022/04/09 06:25:01;;;;;;;11.40;1.10;;;21.80;99.90;;;;;;5061235;28;20292;-69
2022/04/09 06:27:33;;;;;;;6.47;0.98;;;21.90;99.90;;;;;;5063845;28;20244;-69
2022/04/09 06:30:06;;;;;;;6.00;1.10;;;22.00;99.90;;;;;;5066947;28;20185;-70
2022/04/09 06:32:38;;;;;;;7.63;1.20;;;22.00;99.90;;;;;;5073544;28;20247;-71
2022/04/09 06:35:10;;;;;;;8.15;1.17;;;22.00;99.90;;;;;;5070255;28;20558;-70
2022/04/09 06:37:43;;;;;;;7.20;1.08;;;22.00;99.90;;;;;;5069748;28;20213;-73
2022/04/09 06:40:16;;;;;;;7.60;1.42;;;22.00;99.90;;;;;;5069576;28;20271;-69
2022/04/09 06:42:46;;;;;;;10.10;1.13;;;22.00;99.90;;;;;;5069975;28;20254;-70
2022/04/09 06:45:20;;;;;;;8.07;1.27;;;22.00;99.90;;;;;;5067001;28;20251;-68
2022/04/09 06:47:50;;;;;;;9.27;1.20;;;21.90;99.90;;;;;;5071341;28;20633;-74
2022/04/09 06:50:21;;;;;;;9.60;1.30;;;21.90;99.90;;;;;;5073274;28;20229;-70
2022/04/09 06:52:52;;;;;;;8.73;1.30;;;21.80;99.90;;;;;;5074133;28;20196;-69
2022/04/09 06:55:24;;;;;;;11.15;1.50;;;21.80;99.90;;;;;;5072787;28;20193;-69
2022/04/09 06:58:03;;;;;;;7.55;1.10;;;21.80;99.90;;;;;;5073407;28;20181;-69
2022/04/09 07:00:34;;;;;;;7.72;1.13;;;21.70;99.90;;;;;;5071716;28;20209;-68
2022/04/09 07:03:04;;;;;;;9.30;1.20;;;21.60;99.90;;;;;;5069774;28;20280;-69
2022/04/09 07:05:35;;;;;;;7.40;0.88;;;21.50;99.90;;;;;;5074542;28;20189;-70
2022/04/09 07:08:07;;;;;;;7.72;1.10;;;21.40;99.90;;;;;;5071586;28;20706;-68
2022/04/09 07:10:40;;;;;;;5.90;1.20;;;21.30;99.90;;;;;;5068437;28;20193;-78
2022/04/09 07:13:11;;;;;;;8.18;1.00;;;21.30;99.90;;;;;;5070539;28;20672;-74
2022/04/09 07:15:41;;;;;;;6.60;1.70;;;21.20;99.90;;;;;;5069761;28;20189;-78
2022/04/09 07:18:12;;;;;;;9.48;1.90;;;21.20;99.90;;;;;;5071097;28;20250;-77
2022/04/09 07:20:44;;;;;;;11.98;1.60;;;21.20;99.90;;;;;;5069651;28;20270;-85
2022/04/09 07:23:15;;;;;;;10.25;1.40;;;21.10;99.90;;;;;;5071550;28;20197;-82
2022/04/09 07:25:47;;;;;;;5.60;0.95;;;21.10;99.90;;;;;;5071462;28;20277;-78
2022/04/09 07:28:18;;;;;;;9.63;2.88;;;21.10;99.90;;;;;;5071487;28;20189;-81
2022/04/09 07:30:49;;;;;;;19.15;5.50;;;21.00;99.90;;;;;;5067600;28;20189;-72
2022/04/09 07:33:19;;;;;;;24.42;10.85;;;21.00;99.90;;;;;;5070923;28;20182;-77
2022/04/09 07:35:50;;;;;;;13.43;4.18;;;21.00;99.90;;;;;;5068901;28;20193;-69
2022/04/09 07:38:20;;;;;;;16.15;4.30;;;20.90;99.90;;;;;;5071471;28;20277;-80
2022/04/09 07:40:54;;;;;;;10.02;2.97;;;20.90;99.90;;;;;;5067435;28;20209;-74
2022/04/09 07:43:24;;;;;;;63.85;44.20;;;20.80;99.90;;;;;;5069317;28;20641;-78
2022/04/09 07:45:55;;;;;;;38.00;23.85;;;20.80;99.90;;;;;;5068214;28;20571;-74
2022/04/09 07:48:27;;;;;;;16.85;6.07;;;20.70;99.90;;;;;;5077751;22;20645;-81
2022/04/09 07:50:58;;;;;;;8.52;1.92;;;20.70;99.90;;;;;;5070852;28;20204;-83
2022/04/09 07:53:28;;;;;;;10.20;2.17;;;20.70;99.90;;;;;;5073715;28;20185;-83
2022/04/09 07:56:01;;;;;;;10.32;2.75;;;20.70;99.90;;;;;;5066029;28;20189;-80
2022/04/09 07:58:31;;;;;;;10.50;2.75;;;20.70;99.90;;;;;;5073296;28;20196;-82
2022/04/09 08:01:02;;;;;;;9.68;2.10;;;20.70;99.90;;;;;;5066174;28;20660;-82
2022/04/09 08:03:33;;;;;;;13.90;3.83;;;20.70;99.90;;;;;;5070082;28;20648;-77
2022/04/09 08:06:05;;;;;;;14.20;3.90;;;20.70;99.90;;;;;;5071096;28;20220;-80
2022/04/09 08:08:36;;;;;;;65.10;37.90;;;20.70;99.90;;;;;;5070326;28;20185;-82
2022/04/09 08:11:09;;;;;;;28.55;12.88;;;20.70;99.90;;;;;;5071416;28;20197;-80
2022/04/09 08:13:40;;;;;;;9.63;3.33;;;20.70;99.90;;;;;;5072556;28;20186;-85
2022/04/09 08:16:10;;;;;;;16.30;3.90;;;20.70;99.90;;;;;;5071976;28;20197;-82
2022/04/09 08:18:41;;;;;;;20.02;10.77;;;20.70;99.90;;;;;;5072927;28;20200;-82
2022/04/09 08:21:12;;;;;;;13.68;3.22;;;20.60;99.90;;;;;;5072110;28;20205;-83
2022/04/09 08:23:43;;;;;;;15.23;4.15;;;20.60;99.90;;;;;;5073189;28;20189;-80
2022/04/09 08:26:15;;;;;;;18.48;5.80;;;20.60;99.90;;;;;;5071706;28;20256;-80
2022/04/09 08:28:46;;;;;;;13.07;3.60;;;20.50;99.90;;;;;;5073057;28;20208;-82
2022/04/09 08:31:17;;;;;;;101.15;56.38;;;20.50;99.90;;;;;;5069405;28;20201;-83
2022/04/09 08:33:47;;;;;;;30.75;16.10;;;20.50;99.90;;;;;;5072854;28;20189;-82
2022/04/09 08:36:19;;;;;;;12.35;5.60;;;20.50;99.90;;;;;;5071138;28;20190;-82
2022/04/09 08:38:49;;;;;;;22.05;10.32;;;20.40;99.90;;;;;;5072390;28;20189;-83
2022/04/09 08:41:23;;;;;;;14.38;5.15;;;20.40;99.90;;;;;;5072503;28;20219;-82
2022/04/09 08:43:53;;;;;;;19.08;8.60;;;20.40;99.90;;;;;;5071437;28;20185;-77
2022/04/09 08:46:25;;;;;;;22.60;11.32;;;20.40;99.90;;;;;;5071231;28;20185;-82
2022/04/09 08:48:58;;;;;;;9.52;2.72;;;20.40;99.90;;;;;;5067632;28;20240;-80
2022/04/09 08:51:29;;;;;;;12.77;3.25;;;20.40;99.90;;;;;;5069165;28;20204;-83
2022/04/09 08:54:00;;;;;;;11.18;3.72;;;20.40;99.90;;;;;;5066045;28;20182;-82
2022/04/09 08:56:33;;;;;;;13.43;6.88;;;20.40;99.90;;;;;;5068169;28;20193;-81
2022/04/09 08:59:05;;;;;;;11.43;2.65;;;20.40;99.90;;;;;;5060783;28;20185;-82
2022/04/09 09:01:36;;;;;;;5.75;1.48;;;20.40;99.90;;;;;;5061457;28;20206;-84
2022/04/09 09:04:07;;;;;;;8.20;1.60;;;20.30;99.90;;;;;;5066756;28;20201;-83
2022/04/09 09:06:40;;;;;;;10.10;1.48;;;20.30;99.90;;;;;;5064327;28;20193;-84
2022/04/09 09:09:26;;;;;;;10.73;1.85;;;20.20;99.90;;;;;;5063096;28;20191;-81
2022/04/09 09:12:00;;;;;;;13.82;4.32;;;20.20;99.90;;;;;;5057418;28;20213;-83
2022/04/09 09:14:32;;;;;;;8.90;1.73;;;20.20;99.90;;;;;;5060473;28;20207;-82
2022/04/09 09:17:04;;;;;;;24.20;9.13;;;20.20;99.90;;;;;;5065373;28;20180;-84
2022/04/09 09:19:45;;;;;;;14.07;4.05;;;20.20;99.90;;;;;;5064037;28;20189;-83
2022/04/09 09:22:16;;;;;;;35.67;15.98;;;20.20;99.90;;;;;;5066201;28;20216;-82
2022/04/09 09:25:03;;;;;;;15.15;4.35;;;20.10;99.90;;;;;;5065361;28;20193;-84
2022/04/09 09:27:35;;;;;;;11.57;2.67;;;20.10;99.90;;;;;;5064149;28;20632;-84
2022/04/09 09:30:07;;;;;;;10.18;3.00;;;20.10;99.90;;;;;;5066437;28;20271;-83
2022/04/09 09:32:38;;;;;;;7.68;1.80;;;20.00;99.90;;;;;;5067437;28;20635;-83
2022/04/09 09:35:13;;;;;;;11.50;1.63;;;20.10;99.90;;;;;;5059449;28;20189;-83
2022/04/09 09:37:44;;;;;;;7.82;1.90;;;20.00;99.90;;;;;;5062607;28;20195;-82
2022/04/09 09:40:34;;;;;;;6.45;1.65;;;20.00;99.90;;;;;;5065587;28;20378;-83
2022/04/09 09:43:19;;;;;;;11.70;2.00;;;19.90;99.90;;;;;;5053073;28;20209;-83
2022/04/09 09:45:51;;;;;;;8.02;2.33;;;19.90;99.90;;;;;;5062433;28;20219;-81
2022/04/09 09:48:29;;;;;;;12.20;3.17;;;19.90;99.90;;;;;;5062127;28;20224;-84
2022/04/09 09:51:00;;;;;;;11.55;2.35;;;19.90;99.90;;;;;;5059305;28;20185;-83
2022/04/09 09:53:32;;;;;;;9.80;2.45;;;19.80;99.90;;;;;;5056297;28;20235;-81
2022/04/09 09:56:04;;;;;;;10.13;2.90;;;19.70;99.90;;;;;;5054332;28;20598;-83
2022/04/09 09:58:36;;;;;;;6.63;2.50;;;19.70;99.90;;;;;;5052826;28;20194;-82
2022/04/09 10:01:07;;;;;;;10.20;3.10;;;19.70;99.90;;;;;;5059866;28;20190;-83
2022/04/09 10:03:38;;;;;;;8.50;2.20;;;19.80;99.90;;;;;;5062900;28;20185;-82
2022/04/09 10:06:10;;;;;;;10.00;2.47;;;19.80;99.90;;;;;;5060687;28;20189;-83
2022/04/09 10:08:41;;;;;;;9.52;1.90;;;19.80;99.90;;;;;;5062648;28;20201;-82
2022/04/09 10:11:12;;;;;;;11.07;2.63;;;19.80;99.90;;;;;;5059876;28;20193;-80
2022/04/09 10:13:47;;;;;;;10.27;2.20;;;19.80;99.90;;;;;;5057556;28;20182;-82
2022/04/09 10:16:21;;;;;;;8.75;1.95;;;19.80;99.90;;;;;;5058223;28;20242;-76
2022/04/09 10:18:52;;;;;;;13.98;2.15;;;19.80;99.90;;;;;;5063541;28;20181;-84
2022/04/09 10:21:23;;;;;;;9.80;1.50;;;19.80;99.90;;;;;;5063807;28;20254;-87
2022/04/09 10:23:55;;;;;;;9.88;1.95;;;19.80;99.90;;;;;;5061928;28;20193;-86
2022/04/09 10:26:26;;;;;;;8.00;1.35;;;19.80;99.90;;;;;;5058500;28;20718;-84
2022/04/09 10:29:08;;;;;;;9.55;1.40;;;19.70;99.90;;;;;;5056621;28;20214;-85
2022/04/09 10:31:41;;;;;;;8.57;1.60;;;19.70;99.90;;;;;;5056442;28;20609;-86
2022/04/09 10:34:12;;;;;;;7.63;1.70;;;19.60;99.90;;;;;;5070888;28;20185;-86
2022/04/09 10:37:06;;;;;;;8.65;1.58;;;19.50;99.90;;;;;;5056004;28;20281;-86
2022/04/09 10:39:49;;;;;;;6.18;1.40;;;19.50;99.90;;;;;;5062065;28;20205;-90
2022/04/09 10:42:50;;;;;;;10.30;1.67;;;19.40;99.90;;;;;;5063539;28;20236;-89
2022/04/09 10:45:23;;;;;;;12.65;2.10;;;19.40;99.90;;;;;;5062554;28;20216;-85
2022/04/09 10:48:10;;;;;;;11.25;2.05;;;19.40;99.90;;;;;;5071399;28;20239;-87
2022/04/09 10:50:59;;;;;;;7.85;2.28;;;19.40;99.90;;;;;;5069599;28;20185;-85
2022/04/09 10:53:31;;;;;;;12.50;1.75;;;19.30;99.90;;;;;;5059894;28;20189;-88
2022/04/09 10:56:20;;;;;;;9.00;1.40;;;19.30;99.90;;;;;;5059081;28;20181;-87
2022/04/09 10:59:08;;;;;;;8.48;1.55;;;19.20;99.90;;;;;;5064789;28;20641;-83
2022/04/09 11:01:57;;;;;;;9.38;1.48;;;19.10;99.90;;;;;;5062884;28;20671;-83
2022/04/09 11:04:46;;;;;;;4.78;1.00;;;19.10;99.90;;;;;;5059364;28;20208;-86
2022/04/09 11:07:19;;;;;;;7.95;1.27;;;19.00;99.90;;;;;;5061965;28;20225;-81
2022/04/09 11:09:55;;;;;;;7.45;1.25;;;19.00;99.90;;;;;;5065788;28;20186;-79
2022/04/09 11:12:27;;;;;;;7.68;1.00;;;19.00;99.90;;;;;;5062598;28;20247;-78
2022/04/09 11:14:59;;;;;;;9.88;1.48;;;19.00;99.90;;;;;;5059925;28;20221;-84
2022/04/09 11:17:35;;;;;;;3.20;1.02;;;19.00;99.90;;;;;;5058503;28;20248;-84
2022/04/09 11:20:10;;;;;;;3.70;0.90;;;19.00;99.90;;;;;;5054962;28;20201;-83
2022/04/09 11:22:41;;;;;;;5.30;1.00;;;19.00;99.90;;;;;;5062171;28;20208;-78
2022/04/09 11:25:20;;;;;;;5.93;1.00;;;18.90;99.90;;;;;;5060460;28;20209;-78
2022/04/09 11:27:51;;;;;;;5.00;0.90;;;18.90;99.90;;;;;;5064670;28;20184;-76
2022/04/09 11:30:22;;;;;;;4.95;0.90;;;18.90;99.90;;;;;;5064154;28;20193;-81
2022/04/09 11:32:55;;;;;;;4.13;0.90;;;18.90;99.90;;;;;;5066060;28;20279;-78
2022/04/09 11:35:26;;;;;;;5.93;1.10;;;18.80;99.90;;;;;;5065196;28;20594;-78
2022/04/09 11:37:56;;;;;;;3.85;1.30;;;18.80;99.90;;;;;;5058776;28;20253;-71
2022/04/09 11:40:30;;;;;;;4.95;1.10;;;18.80;99.90;;;;;;5055019;28;20189;-83
2022/04/09 11:43:00;;;;;;;4.07;1.00;;;18.80;99.90;;;;;;5066678;28;20204;-79
2022/04/09 11:45:32;;;;;;;3.08;0.88;;;18.70;99.90;;;;;;5065690;28;20189;-71
2022/04/09 11:48:06;;;;;;;6.03;1.20;;;18.70;99.90;;;;;;5060694;28;20225;-80
2022/04/09 11:50:39;;;;;;;5.63;1.13;;;18.70;99.90;;;;;;5065493;28;20605;-74
2022/04/09 11:53:14;;;;;;;4.03;0.85;;;18.80;99.90;;;;;;5055861;28;20190;-78
2022/04/09 11:55:47;;;;;;;6.65;1.20;;;18.70;99.90;;;;;;5063970;28;20188;-76
2022/04/09 11:58:20;;;;;;;5.97;1.27;;;18.70;99.90;;;;;;5062648;28;20182;-77
2022/04/09 12:00:50;;;;;;;4.32;1.05;;;18.70;99.90;;;;;;5061543;28;20194;-76
2022/04/09 12:03:23;;;;;;;6.28;1.50;;;18.70;99.90;;;;;;5068855;28;20216;-73
2022/04/09 12:05:54;;;;;;;7.90;1.10;;;18.60;99.90;;;;;;5065735;28;20722;-75
2022/04/09 12:08:28;;;;;;;4.30;1.15;;;18.50;99.90;;;;;;5055909;28;20235;-84
2022/04/09 12:11:00;;;;;;;7.88;1.20;;;18.50;99.90;;;;;;5061888;28;20192;-78
2022/04/09 12:13:32;;;;;;;7.18;1.13;;;18.60;99.90;;;;;;5058639;28;20198;-82
2022/04/09 12:16:05;;;;;;;6.18;1.20;;;18.60;99.90;;;;;;5054765;28;20185;-83
2022/04/09 12:18:38;;;;;;;8.98;1.42;;;18.60;99.90;;;;;;5056171;28;20236;-79
2022/04/09 12:21:21;;;;;;;5.97;1.20;;;18.60;99.90;;;;;;5069395;28;20251;-73
2022/04/09 12:24:02;;;;;;;4.10;0.95;;;18.60;99.90;;;;;;5058818;28;20216;-76
2022/04/09 12:26:34;;;;;;;6.75;1.40;;;18.60;99.90;;;;;;5054938;28;20196;-74
2022/04/09 12:29:16;;;;;;;7.10;1.83;;;18.60;99.90;;;;;;5056002;28;20603;-83
2022/04/09 12:31:48;;;;;;;5.90;1.52;;;18.50;99.90;;;;;;5059480;28;20204;-73
2022/04/09 12:34:21;;;;;;;4.78;1.25;;;18.50;99.90;;;;;;5063129;28;20238;-77
2022/04/09 12:37:06;;;;;;;6.90;1.30;;;18.50;99.90;;;;;;5056016;28;20244;-82
2022/04/09 12:39:38;;;;;;;4.90;1.20;;;18.50;99.90;;;;;;5059579;28;20712;-71
2022/04/09 12:42:09;;;;;;;5.85;1.25;;;18.40;99.90;;;;;;5068453;28;20639;-74
2022/04/09 12:44:40;;;;;;;7.05;1.35;;;18.50;99.90;;;;;;5063379;28;20185;-84
2022/04/09 12:47:11;;;;;;;6.80;1.30;;;18.40;99.90;;;;;;5054859;28;20219;-76
2022/04/09 12:49:44;;;;;;;7.60;1.60;;;18.40;99.90;;;;;;5056158;28;20231;-71
2022/04/09 12:52:16;;;;;;;8.32;1.73;;;18.40;99.90;;;;;;5063134;28;20243;-82
2022/04/09 12:54:47;;;;;;;5.13;1.40;;;18.40;99.90;;;;;;5064051;28;20596;-73
2022/04/09 12:57:17;;;;;;;6.88;1.20;;;18.40;99.90;;;;;;5057714;28;20194;-77
2022/04/09 12:59:48;;;;;;;10.18;2.25;;;18.40;99.90;;;;;;5059305;28;20182;-72
2022/04/09 13:02:19;;;;;;;4.88;1.10;;;18.30;99.90;;;;;;5053501;28;20221;-76
2022/04/09 13:04:51;;;;;;;5.38;1.10;;;18.30;99.90;;;;;;5061476;28;20193;-82
2022/04/09 13:07:22;;;;;;;4.97;1.55;;;18.30;99.90;;;;;;5060615;28;20258;-71
2022/04/09 13:09:52;;;;;;;3.47;1.08;;;18.30;99.90;;;;;;5053154;28;20243;-83